Time;durP1;ratioP1;P1;durP2;ratioP2;P2;SDS_P1;SDS_P2;PMS_P1;PMS_P2;Temp;Humidity;BMP_temperature;BMP_pressure;BME280_temperature;BME280_humidity;BME280_pressure;Samples;Min_cycle;Max_cycle;Signal;HPM_P1;HPM_P2
2021/09/11 00:00:15;;;;;;;19.90;13.52;;;9.60;99.90;;;;;;5090008;28;20413;-79
2021/09/11 00:02:41;;;;;;;17.50;13.15;;;9.50;99.90;;;;;;5077123;28;20051;-79
2021/09/11 00:05:07;;;;;;;22.00;13.10;;;9.50;99.90;;;;;;5089573;28;20035;-79
2021/09/11 00:07:33;;;;;;;20.70;13.48;;;9.50;99.90;;;;;;5091381;28;20093;-79
2021/09/11 00:09:59;;;;;;;19.02;13.57;;;9.50;99.90;;;;;;5091334;28;20427;-79
2021/09/11 00:12:24;;;;;;;20.38;13.68;;;9.40;99.90;;;;;;5091620;28;20013;-79
2021/09/11 00:14:50;;;;;;;22.25;14.25;;;9.40;99.90;;;;;;5091661;28;20040;-79
2021/09/11 00:17:16;;;;;;;23.63;14.40;;;9.40;99.90;;;;;;5091773;28;20486;-79
2021/09/11 00:19:41;;;;;;;18.05;13.32;;;9.40;99.90;;;;;;5092982;28;20055;-79
2021/09/11 00:22:07;;;;;;;20.02;13.00;;;9.40;99.90;;;;;;5092181;28;20397;-79
2021/09/11 00:24:33;;;;;;;20.13;13.23;;;9.40;99.90;;;;;;5092667;28;20038;-79
2021/09/11 00:26:58;;;;;;;18.67;12.50;;;9.40;99.90;;;;;;5091718;28;20020;-79
2021/09/11 00:29:24;;;;;;;16.88;12.40;;;9.40;99.90;;;;;;5092452;28;20420;-79
2021/09/11 00:31:50;;;;;;;16.52;10.93;;;9.30;99.90;;;;;;5092790;28;20085;-79
2021/09/11 00:34:16;;;;;;;17.50;12.38;;;9.30;99.90;;;;;;5091927;28;20028;-80
2021/09/11 00:36:41;;;;;;;14.15;10.68;;;9.20;99.90;;;;;;5091583;28;20073;-79
2021/09/11 00:39:07;;;;;;;14.52;9.90;;;9.20;99.90;;;;;;5084949;28;20428;-79
2021/09/11 00:41:34;;;;;;;8.40;6.53;;;9.20;99.90;;;;;;5092393;28;20024;-79
2021/09/11 00:44:00;;;;;;;10.68;7.22;;;9.00;99.90;;;;;;5099321;28;20028;-80
2021/09/11 00:46:25;;;;;;;10.95;8.25;;;8.90;99.90;;;;;;5091240;28;20024;-79
2021/09/11 00:48:51;;;;;;;17.33;9.90;;;8.80;99.90;;;;;;5081004;28;20091;-80
2021/09/11 00:51:17;;;;;;;14.70;10.10;;;8.80;99.90;;;;;;5106421;28;20028;-80
2021/09/11 00:53:43;;;;;;;18.13;11.93;;;8.80;99.90;;;;;;5078021;28;20059;-79
2021/09/11 00:56:09;;;;;;;18.05;11.75;;;8.80;99.90;;;;;;5088510;28;20036;-79
2021/09/11 00:58:35;;;;;;;16.42;11.40;;;8.80;99.90;;;;;;5085476;28;20157;-79
2021/09/11 01:01:01;;;;;;;20.92;12.18;;;8.80;99.90;;;;;;5087876;28;20077;-79
2021/09/11 01:03:26;;;;;;;20.17;11.48;;;8.80;99.90;;;;;;5091336;28;20020;-79
2021/09/11 01:05:52;;;;;;;25.85;14.73;;;8.80;99.90;;;;;;5091350;28;20111;-79
2021/09/11 01:08:18;;;;;;;21.40;13.60;;;8.80;99.90;;;;;;5083776;28;20020;-79
2021/09/11 01:10:44;;;;;;;17.60;12.93;;;8.80;99.90;;;;;;5083759;28;20047;-79
2021/09/11 01:13:10;;;;;;;22.20;13.30;;;8.80;99.90;;;;;;5092508;28;20016;-79
2021/09/11 01:15:41;;;;;;;20.92;12.75;;;8.80;99.90;;;;;;5089939;28;20028;-79
2021/09/11 01:18:07;;;;;;;19.42;12.20;;;8.80;99.90;;;;;;5098539;28;20077;-79
2021/09/11 01:20:34;;;;;;;22.80;12.40;;;8.70;99.90;;;;;;5098294;28;20024;-79
2021/09/11 01:23:00;;;;;;;19.90;12.23;;;8.70;99.90;;;;;;5091059;28;20107;-79
2021/09/11 01:25:26;;;;;;;16.65;11.50;;;8.70;99.90;;;;;;5093879;28;20055;-79
2021/09/11 01:27:52;;;;;;;15.90;11.00;;;8.70;99.90;;;;;;5093314;28;20020;-79
2021/09/11 01:30:20;;;;;;;18.63;12.27;;;8.60;99.90;;;;;;5093372;28;20040;-79
2021/09/11 01:32:47;;;;;;;18.58;11.70;;;8.60;99.90;;;;;;5095764;28;20069;-79
2021/09/11 01:35:13;;;;;;;19.65;12.20;;;8.60;99.90;;;;;;5083967;28;20036;-79
2021/09/11 01:37:39;;;;;;;18.67;11.88;;;8.50;99.90;;;;;;5095821;28;20016;-79
2021/09/11 01:40:06;;;;;;;15.38;11.88;;;8.50;99.90;;;;;;5090091;28;20043;-79
2021/09/11 01:42:32;;;;;;;17.10;11.02;;;8.60;99.90;;;;;;5094423;28;20490;-79
2021/09/11 01:45:01;;;;;;;16.27;11.63;;;8.50;99.90;;;;;;5088026;28;20397;-79
2021/09/11 01:47:27;;;;;;;18.30;11.88;;;8.50;99.90;;;;;;5094441;28;20020;-79
2021/09/11 01:49:53;;;;;;;18.27;11.20;;;8.50;99.90;;;;;;5091012;28;20065;-79
2021/09/11 01:52:22;;;;;;;17.02;10.90;;;8.50;99.90;;;;;;5094133;28;20111;-79
2021/09/11 01:54:48;;;;;;;17.17;11.40;;;8.50;99.90;;;;;;5093160;28;20036;-78
2021/09/11 01:57:14;;;;;;;14.95;10.32;;;8.50;99.90;;;;;;5094199;28;20031;-79
2021/09/11 01:59:40;;;;;;;16.23;10.75;;;8.50;99.90;;;;;;5086784;28;20477;-78
2021/09/11 02:02:07;;;;;;;18.80;11.02;;;8.50;99.90;;;;;;5093955;28;20113;-79
2021/09/11 02:04:33;;;;;;;16.50;10.88;;;8.50;99.90;;;;;;5091867;28;20032;-79
2021/09/11 02:07:01;;;;;;;15.05;10.30;;;8.50;99.90;;;;;;5095254;28;20031;-78
2021/09/11 02:09:27;;;;;;;16.33;10.38;;;8.50;99.90;;;;;;5091973;28;20020;-79
2021/09/11 02:11:52;;;;;;;16.10;10.18;;;8.50;99.90;;;;;;5093470;28;20093;-79
2021/09/11 02:14:18;;;;;;;14.95;10.20;;;8.50;99.90;;;;;;5094509;28;20438;-79
2021/09/11 02:16:44;;;;;;;14.80;9.60;;;8.40;99.90;;;;;;5092995;28;20023;-79
2021/09/11 02:19:09;;;;;;;16.13;10.50;;;8.40;99.90;;;;;;5084336;28;20028;-79
2021/09/11 02:21:35;;;;;;;14.95;9.57;;;8.40;99.90;;;;;;5094979;28;20091;-79
2021/09/11 02:24:00;;;;;;;13.85;9.57;;;8.40;99.90;;;;;;5095426;28;20024;-79
2021/09/11 02:26:27;;;;;;;11.52;9.32;;;8.30;99.90;;;;;;5093921;28;20483;-80
2021/09/11 02:28:53;;;;;;;11.10;8.98;;;8.30;99.90;;;;;;5093198;28;20095;-79
2021/09/11 02:31:19;;;;;;;10.50;8.25;;;8.30;99.90;;;;;;5094114;28;20028;-79
2021/09/11 02:33:47;;;;;;;11.55;8.63;;;8.30;99.90;;;;;;5089066;28;20102;-79
2021/09/11 02:36:13;;;;;;;12.45;8.45;;;8.20;99.90;;;;;;5109278;28;20123;-79
2021/09/11 02:38:39;;;;;;;12.18;9.02;;;8.20;99.90;;;;;;5092083;28;20031;-80
2021/09/11 02:41:04;;;;;;;12.68;8.70;;;8.10;99.90;;;;;;5093400;28;20032;-80
2021/09/11 02:43:30;;;;;;;14.82;8.25;;;8.10;99.90;;;;;;5087287;28;20078;-80
2021/09/11 02:45:56;;;;;;;12.90;8.88;;;8.10;99.90;;;;;;5088670;28;20030;-80
2021/09/11 02:48:22;;;;;;;11.27;8.13;;;8.00;99.90;;;;;;5093806;28;20020;-79
2021/09/11 02:50:48;;;;;;;10.73;7.03;;;8.00;99.90;;;;;;5106030;28;20024;-79
2021/09/11 02:53:13;;;;;;;12.98;7.97;;;8.00;99.90;;;;;;5091760;28;20028;-79
2021/09/11 02:55:39;;;;;;;15.50;8.70;;;8.00;99.90;;;;;;5109011;28;20496;-79
2021/09/11 02:58:04;;;;;;;11.70;8.05;;;8.00;99.90;;;;;;5109405;28;20020;-79
2021/09/11 03:00:30;;;;;;;14.88;8.82;;;8.00;99.90;;;;;;5100705;28;20487;-80
2021/09/11 03:02:56;;;;;;;18.73;10.07;;;8.00;99.90;;;;;;5106774;28;20028;-79
2021/09/11 03:05:21;;;;;;;14.77;9.27;;;8.00;99.90;;;;;;5082325;28;20023;-79
2021/09/11 03:07:47;;;;;;;13.93;9.48;;;8.00;99.90;;;;;;5094090;28;20032;-80
2021/09/11 03:10:13;;;;;;;18.80;10.25;;;7.90;99.90;;;;;;5075655;28;20063;-80
2021/09/11 03:12:39;;;;;;;22.38;9.88;;;8.00;99.90;;;;;;5092517;28;20024;-79
2021/09/11 03:15:05;;;;;;;18.60;10.27;;;7.90;99.90;;;;;;5107475;28;20055;-80
2021/09/11 03:17:31;;;;;;;22.98;10.95;;;7.90;99.90;;;;;;5093894;28;20052;-80
2021/09/11 03:19:56;;;;;;;17.23;9.88;;;7.90;99.90;;;;;;5089592;28;20062;-79
2021/09/11 03:22:22;;;;;;;15.27;9.82;;;7.90;99.90;;;;;;5112970;28;20061;-80
2021/09/11 03:24:48;;;;;;;21.73;10.63;;;7.90;99.90;;;;;;5093615;28;20468;-80
2021/09/11 03:27:14;;;;;;;19.58;9.05;;;7.90;99.90;;;;;;5093475;28;20069;-79
2021/09/11 03:29:39;;;;;;;22.45;9.00;;;7.90;99.90;;;;;;5087461;28;20070;-80
2021/09/11 03:32:06;;;;;;;22.40;9.95;;;7.90;99.90;;;;;;5093604;28;20130;-79
2021/09/11 03:34:31;;;;;;;19.23;8.93;;;7.90;99.90;;;;;;5094138;28;20028;-79
2021/09/11 03:36:57;;;;;;;16.60;8.50;;;7.90;99.90;;;;;;5071953;28;20039;-79
2021/09/11 03:39:23;;;;;;;15.60;9.15;;;7.80;99.90;;;;;;5073292;28;20032;-79
2021/09/11 03:41:49;;;;;;;18.00;8.60;;;7.80;99.90;;;;;;5093200;28;20055;-79
2021/09/11 03:44:14;;;;;;;16.52;9.13;;;7.80;99.90;;;;;;5091912;28;20465;-79
2021/09/11 03:46:40;;;;;;;14.40;9.38;;;7.80;99.90;;;;;;5092787;28;20054;-78
2021/09/11 03:49:06;;;;;;;18.20;10.25;;;7.80;99.90;;;;;;5084206;28;20044;-79
2021/09/11 03:51:32;;;;;;;17.20;8.98;;;7.70;99.90;;;;;;5071414;28;20025;-79
2021/09/11 03:53:58;;;;;;;16.30;9.90;;;7.70;99.90;;;;;;5082186;28;20033;-79
2021/09/11 03:56:24;;;;;;;14.23;9.10;;;7.70;99.90;;;;;;5084821;28;20042;-79
2021/09/11 03:58:49;;;;;;;14.68;9.23;;;7.70;99.90;;;;;;5090753;28;20469;-79
2021/09/11 04:01:15;;;;;;;16.00;9.88;;;7.70;99.90;;;;;;5107946;28;20074;-79
2021/09/11 04:03:40;;;;;;;16.20;9.52;;;7.70;99.90;;;;;;5088565;28;20420;-79
2021/09/11 04:06:06;;;;;;;15.70;8.85;;;7.70;99.90;;;;;;5104067;28;20448;-79
2021/09/11 04:08:32;;;;;;;12.15;9.20;;;7.70;99.90;;;;;;5102040;28;20394;-79
2021/09/11 04:10:59;;;;;;;15.82;9.60;;;7.70;99.90;;;;;;5080993;28;20609;-79
2021/09/11 04:13:25;;;;;;;14.52;8.63;;;7.70;99.90;;;;;;5103144;28;20393;-80
2021/09/11 04:15:51;;;;;;;11.85;7.90;;;7.70;99.90;;;;;;5079538;28;20135;-80
2021/09/11 04:18:17;;;;;;;11.00;8.73;;;7.70;99.90;;;;;;5071522;28;20039;-79
2021/09/11 04:20:43;;;;;;;13.38;8.43;;;7.60;99.90;;;;;;5085321;28;20048;-79
2021/09/11 04:23:09;;;;;;;13.27;9.00;;;7.70;99.90;;;;;;5092434;28;20024;-80
2021/09/11 04:25:34;;;;;;;13.07;8.35;;;7.60;99.90;;;;;;5089966;28;20383;-80
2021/09/11 04:28:00;;;;;;;15.50;8.98;;;7.60;99.90;;;;;;5090053;28;20024;-79
2021/09/11 04:30:26;;;;;;;19.52;10.52;;;7.60;99.90;;;;;;5091917;28;20035;-80
2021/09/11 04:32:52;;;;;;;15.07;9.85;;;7.60;99.90;;;;;;5091284;28;20020;-79
2021/09/11 04:35:17;;;;;;;12.55;9.23;;;7.70;99.90;;;;;;5088930;28;20039;-80
2021/09/11 04:37:43;;;;;;;15.80;9.57;;;7.70;99.90;;;;;;5092200;28;20107;-80
2021/09/11 04:40:09;;;;;;;16.48;8.75;;;7.70;99.90;;;;;;5089891;28;20024;-80
2021/09/11 04:42:35;;;;;;;17.25;9.38;;;7.70;99.90;;;;;;5088249;28;20027;-80
2021/09/11 04:45:01;;;;;;;13.13;8.70;;;7.70;99.90;;;;;;5094335;28;20028;-80
2021/09/11 04:47:27;;;;;;;15.40;9.00;;;7.70;99.90;;;;;;5071280;28;20040;-80
2021/09/11 04:49:52;;;;;;;16.25;9.57;;;7.80;99.90;;;;;;5082533;28;20023;-79
2021/09/11 04:52:18;;;;;;;17.27;9.23;;;7.80;99.90;;;;;;5108330;28;20035;-79
2021/09/11 04:54:44;;;;;;;18.38;9.55;;;7.80;99.90;;;;;;5099084;28;20024;-80
2021/09/11 04:57:09;;;;;;;22.05;11.10;;;7.90;99.90;;;;;;5108370;28;20458;-80
2021/09/11 04:59:35;;;;;;;16.52;10.32;;;8.00;99.90;;;;;;5084027;28;20012;-80
2021/09/11 05:02:01;;;;;;;21.50;11.35;;;8.00;99.90;;;;;;5096271;28;20032;-80
2021/09/11 05:04:26;;;;;;;19.80;9.68;;;8.10;99.90;;;;;;5083592;28;20028;-80
2021/09/11 05:06:52;;;;;;;19.85;9.90;;;8.20;99.90;;;;;;5078198;28;20028;-80
2021/09/11 05:09:18;;;;;;;15.48;8.80;;;8.20;99.90;;;;;;5083187;28;20490;-80
2021/09/11 05:11:44;;;;;;;16.33;10.00;;;8.30;99.90;;;;;;5095908;28;20027;-80
2021/09/11 05:14:10;;;;;;;16.63;9.55;;;8.30;99.90;;;;;;5082541;28;20539;-80
2021/09/11 05:16:35;;;;;;;15.23;9.25;;;8.40;99.90;;;;;;5107698;28;20032;-80
2021/09/11 05:19:01;;;;;;;18.35;9.60;;;8.40;99.90;;;;;;5086556;28;20386;-80
2021/09/11 05:21:26;;;;;;;15.15;9.45;;;8.50;99.90;;;;;;5094521;28;20410;-81
2021/09/11 05:23:52;;;;;;;17.73;10.18;;;8.60;99.90;;;;;;5090405;28;20017;-79
2021/09/11 05:26:18;;;;;;;17.85;9.50;;;8.70;99.90;;;;;;5086730;28;20397;-82
2021/09/11 05:28:43;;;;;;;13.73;9.55;;;8.80;99.90;;;;;;5091151;28;20432;-79
2021/09/11 05:31:09;;;;;;;17.73;10.15;;;8.90;99.90;;;;;;5098319;28;20024;-80
2021/09/11 05:33:35;;;;;;;18.52;11.70;;;9.10;99.90;;;;;;5084524;28;20020;-79
2021/09/11 05:36:01;;;;;;;17.75;9.98;;;9.20;99.90;;;;;;5091011;28;20036;-80
2021/09/11 05:38:27;;;;;;;18.73;12.00;;;9.30;99.90;;;;;;5105397;28;20028;-82
2021/09/11 05:40:53;;;;;;;20.33;10.57;;;9.40;99.90;;;;;;5088029;28;20111;-80
2021/09/11 05:43:18;;;;;;;18.80;10.95;;;9.60;99.90;;;;;;5090923;28;20027;-80
2021/09/11 05:45:44;;;;;;;17.38;11.55;;;9.80;99.90;;;;;;5087555;28;20032;-80
2021/09/11 05:48:09;;;;;;;17.35;9.70;;;10.00;99.90;;;;;;5093065;28;20029;-80
2021/09/11 05:50:35;;;;;;;17.75;10.30;;;10.20;99.90;;;;;;5102191;28;20024;-80
2021/09/11 05:53:01;;;;;;;14.02;9.05;;;10.40;99.90;;;;;;5073327;28;20020;-80
2021/09/11 05:55:27;;;;;;;14.43;9.43;;;10.60;99.90;;;;;;5090802;28;20036;-80
2021/09/11 05:57:52;;;;;;;24.73;10.30;;;10.80;99.90;;;;;;5092169;28;20111;-80
2021/09/11 06:00:18;;;;;;;10.50;9.13;;;11.00;99.90;;;;;;5092776;28;20557;-80
2021/09/11 06:02:44;;;;;;;18.13;11.45;;;11.30;99.90;;;;;;5091253;28;20029;-80
2021/09/11 06:05:10;;;;;;;13.43;9.52;;;11.50;99.90;;;;;;5091307;28;20114;-80
2021/09/11 06:07:37;;;;;;;19.90;9.80;;;11.70;99.90;;;;;;5094531;28;20020;-80
2021/09/11 06:10:04;;;;;;;14.65;8.93;;;11.90;99.90;;;;;;5090326;28;20020;-81
2021/09/11 06:12:29;;;;;;;14.02;9.13;;;12.10;99.90;;;;;;5093979;28;20470;-80
2021/09/11 06:14:55;;;;;;;18.05;10.27;;;12.30;99.90;;;;;;5091216;28;20020;-80
2021/09/11 06:17:21;;;;;;;11.50;9.32;;;12.50;99.90;;;;;;5092726;28;20171;-81
2021/09/11 06:19:47;;;;;;;11.88;9.07;;;12.80;99.90;;;;;;5098112;28;20367;-80
2021/09/11 06:22:13;;;;;;;17.42;10.65;;;13.10;99.90;;;;;;5093054;28;20032;-80
2021/09/11 06:24:40;;;;;;;15.00;8.70;;;13.30;99.90;;;;;;5092322;28;20062;-80
2021/09/11 06:27:06;;;;;;;10.60;7.00;;;13.60;99.90;;;;;;5090427;28;20531;-80
2021/09/11 06:29:33;;;;;;;11.45;7.93;;;13.80;99.90;;;;;;5087951;28;20028;-80
2021/09/11 06:31:58;;;;;;;12.35;7.35;;;14.10;99.90;;;;;;5093455;28;20058;-80
2021/09/11 06:34:24;;;;;;;17.30;8.30;;;14.30;99.90;;;;;;5081155;28;20052;-80
2021/09/11 06:36:50;;;;;;;18.30;8.32;;;14.60;99.90;;;;;;5092553;28;20024;-81
2021/09/11 06:39:17;;;;;;;20.33;9.38;;;14.90;99.90;;;;;;5083152;27;20073;-81
2021/09/11 06:41:43;;;;;;;15.02;7.88;;;15.20;99.90;;;;;;5086925;28;20042;-80
2021/09/11 06:44:08;;;;;;;21.48;8.93;;;15.40;99.90;;;;;;5083783;28;20075;-80
2021/09/11 06:46:34;;;;;;;20.13;9.65;;;15.70;99.90;;;;;;5091864;28;20048;-80
2021/09/11 06:49:00;;;;;;;17.60;8.05;;;16.00;99.90;;;;;;5081207;28;20040;-79
2021/09/11 06:51:26;;;;;;;18.45;9.23;;;16.20;97.00;;;;;;5089959;28;20031;-79
2021/09/11 06:53:52;;;;;;;17.85;7.60;;;16.50;99.90;;;;;;5092078;28;20509;-79
2021/09/11 06:56:18;;;;;;;12.82;7.05;;;16.70;99.90;;;;;;5095741;28;20031;-80
2021/09/11 06:58:43;;;;;;;13.77;6.63;;;16.90;94.40;;;;;;5076599;28;20027;-80
2021/09/11 07:01:10;;;;;;;13.50;6.50;;;17.00;91.20;;;;;;5093045;28;20036;-80
2021/09/11 07:03:36;;;;;;;11.40;6.88;;;17.20;88.20;;;;;;5105828;28;20074;-80
2021/09/11 07:06:05;;;;;;;12.95;6.38;;;17.40;87.60;;;;;;5107979;28;20024;-80
2021/09/11 07:08:32;;;;;;;10.20;6.22;;;17.50;77.60;;;;;;5088898;28;20016;-80
2021/09/11 07:10:58;;;;;;;14.82;7.55;;;17.70;80.10;;;;;;5106434;28;20534;-80
2021/09/11 07:13:23;;;;;;;12.18;6.72;;;17.90;79.60;;;;;;5100875;28;20028;-80
2021/09/11 07:15:49;;;;;;;11.75;5.28;;;18.10;80.30;;;;;;5088178;28;20078;-80
2021/09/11 07:18:15;;;;;;;9.57;6.18;;;18.10;77.00;;;;;;5090606;28;20020;-80
2021/09/11 07:20:40;;;;;;;9.07;5.07;;;18.30;74.50;;;;;;5091502;28;20461;-80
2021/09/11 07:23:06;;;;;;;8.52;5.32;;;18.40;73.30;;;;;;5108265;28;20118;-80
2021/09/11 07:25:32;;;;;;;8.85;6.03;;;18.50;71.90;;;;;;5107808;28;20121;-80
2021/09/11 07:27:57;;;;;;;10.77;4.85;;;18.60;72.10;;;;;;5108570;28;20020;-80
2021/09/11 07:30:23;;;;;;;7.95;5.88;;;18.70;73.60;;;;;;5094030;28;20028;-80
2021/09/11 07:32:49;;;;;;;11.63;5.38;;;18.90;74.10;;;;;;5108722;28;20016;-80
2021/09/11 07:35:15;;;;;;;11.73;5.60;;;19.00;72.40;;;;;;5104274;28;20114;-79
2021/09/11 07:37:41;;;;;;;8.30;4.30;;;19.00;68.40;;;;;;5094867;28;20032;-81
2021/09/11 07:40:08;;;;;;;8.45;4.78;;;19.00;67.20;;;;;;5096484;28;20032;-81
2021/09/11 07:42:34;;;;;;;9.23;5.35;;;19.10;69.70;;;;;;5098162;28;20016;-81
2021/09/11 07:44:59;;;;;;;6.13;4.60;;;19.10;65.30;;;;;;5079480;28;20382;-80
2021/09/11 07:47:25;;;;;;;11.23;5.57;;;19.20;65.00;;;;;;5093451;28;20024;-81
2021/09/11 07:49:51;;;;;;;7.13;4.50;;;19.20;65.10;;;;;;5089949;28;20039;-79
2021/09/11 07:52:17;;;;;;;6.97;5.32;;;19.30;65.50;;;;;;5079650;28;20016;-79
2021/09/11 07:54:43;;;;;;;8.90;5.10;;;19.50;66.70;;;;;;5082799;28;20107;-80
2021/09/11 07:57:09;;;;;;;7.82;5.90;;;19.60;66.50;;;;;;5083317;28;20031;-80
2021/09/11 07:59:35;;;;;;;7.68;4.78;;;19.80;65.20;;;;;;5105427;28;20467;-81
2021/09/11 08:02:02;;;;;;;9.05;5.15;;;19.90;65.80;;;;;;5092503;28;20028;-81
2021/09/11 08:04:27;;;;;;;13.82;5.00;;;19.90;64.00;;;;;;5092377;28;20016;-81
2021/09/11 08:06:53;;;;;;;9.82;5.65;;;20.00;61.00;;;;;;5091783;28;20020;-81
2021/09/11 08:09:19;;;;;;;10.70;5.30;;;20.10;62.50;;;;;;5102372;28;20481;-82
2021/09/11 08:11:44;;;;;;;8.60;5.53;;;20.20;62.60;;;;;;5087257;28;20130;-81
2021/09/11 08:14:10;;;;;;;9.82;4.65;;;20.30;62.80;;;;;;5081883;28;20389;-81
2021/09/11 08:16:36;;;;;;;7.45;6.25;;;20.40;63.60;;;;;;5092072;28;20024;-82
2021/09/11 08:19:02;;;;;;;8.18;5.82;;;20.50;61.70;;;;;;5098407;28;20020;-81
2021/09/11 08:21:28;;;;;;;8.38;5.75;;;20.60;62.30;;;;;;5107435;28;20051;-81
2021/09/11 08:23:54;;;;;;;9.00;5.13;;;20.70;61.60;;;;;;5092286;28;20100;-82
2021/09/11 08:26:20;;;;;;;6.85;5.13;;;20.80;63.80;;;;;;5089300;28;20604;-84
2021/09/11 08:28:45;;;;;;;8.75;5.78;;;20.70;60.50;;;;;;5083401;28;20056;-82
2021/09/11 08:31:13;;;;;;;6.60;4.60;;;20.90;62.70;;;;;;5080240;28;20378;-81
2021/09/11 08:33:40;;;;;;;5.82;5.00;;;21.00;61.40;;;;;;5076361;28;20040;-81
2021/09/11 08:36:05;;;;;;;10.63;4.93;;;21.00;60.50;;;;;;5093395;28;20063;-80
2021/09/11 08:38:34;;;;;;;9.30;4.43;;;21.00;58.80;;;;;;5090979;28;20071;-81
2021/09/11 08:41:04;;;;;;;9.05;4.43;;;21.10;60.00;;;;;;5082562;28;20107;-82
2021/09/11 08:43:29;;;;;;;10.48;4.55;;;21.30;59.60;;;;;;5090039;28;20033;-81
2021/09/11 08:45:55;;;;;;;6.35;4.03;;;21.40;57.20;;;;;;5093349;28;20028;-84
2021/09/11 08:48:21;;;;;;;6.15;4.20;;;21.50;57.70;;;;;;5087395;28;20039;-80
2021/09/11 08:50:47;;;;;;;7.63;4.40;;;21.70;59.50;;;;;;5109790;28;20020;-81
2021/09/11 08:53:12;;;;;;;8.52;4.00;;;21.70;57.20;;;;;;5093065;28;20052;-81
2021/09/11 08:55:39;;;;;;;5.95;3.75;;;21.80;56.60;;;;;;5097061;28;20494;-81
2021/09/11 08:58:08;;;;;;;5.25;3.80;;;21.80;54.50;;;;;;5107601;28;20026;-80
2021/09/11 09:00:46;;;;;;;8.00;4.45;;;21.80;54.70;;;;;;5093322;28;20533;-81
2021/09/11 09:03:34;;;;;;;4.93;4.00;;;21.90;55.50;;;;;;5076257;28;20032;-82
2021/09/11 09:06:20;;;;;;;5.15;4.10;;;22.00;56.40;;;;;;5083544;28;20500;-81
2021/09/11 09:08:49;;;;;;;10.43;4.18;;;22.10;56.10;;;;;;5088892;28;20037;-82
2021/09/11 09:11:28;;;;;;;5.15;4.20;;;22.00;55.10;;;;;;5084329;28;20108;-80
2021/09/11 09:14:00;;;;;;;7.63;4.05;;;22.10;55.00;;;;;;5091820;28;20401;-81
2021/09/11 09:16:34;;;;;;;6.85;4.22;;;22.20;55.80;;;;;;5106655;28;20199;-83
2021/09/11 09:19:04;;;;;;;8.07;4.32;;;22.20;54.00;;;;;;5102826;28;21210;-81
2021/09/11 09:21:31;;;;;;;6.47;4.88;;;22.20;54.60;;;;;;5093807;28;20043;-80
2021/09/11 09:24:06;;;;;;;7.30;4.40;;;22.30;55.50;;;;;;5092520;28;20028;-80
2021/09/11 09:26:51;;;;;;;6.50;3.97;;;22.50;56.10;;;;;;5089323;28;20028;-81
2021/09/11 09:29:18;;;;;;;5.47;4.00;;;22.70;57.50;;;;;;5089341;28;20080;-81
2021/09/11 09:31:45;;;;;;;7.47;4.45;;;22.80;55.20;;;;;;5092798;28;20028;-81
2021/09/11 09:34:27;;;;;;;11.50;5.57;;;22.90;54.50;;;;;;5089632;28;20047;-80
2021/09/11 09:36:55;;;;;;;8.70;4.95;;;22.90;54.50;;;;;;5097407;28;20028;-82
2021/09/11 09:39:21;;;;;;;5.25;3.80;;;23.00;55.30;;;;;;5090890;28;20389;-81
2021/09/11 09:41:52;;;;;;;6.50;4.28;;;23.00;54.00;;;;;;5090582;28;20020;-80
2021/09/11 09:44:20;;;;;;;7.13;4.03;;;23.10;54.40;;;;;;5100866;28;20142;-81
2021/09/11 09:46:50;;;;;;;6.43;4.63;;;23.10;53.70;;;;;;5097502;28;20029;-81
2021/09/11 09:49:24;;;;;;;7.60;3.88;;;23.20;52.60;;;;;;5078914;28;20044;-80
2021/09/11 09:51:50;;;;;;;5.35;3.42;;;23.20;51.60;;;;;;5092451;28;20108;-81
2021/09/11 09:54:18;;;;;;;4.38;3.42;;;23.30;51.10;;;;;;5092610;28;20063;-80
2021/09/11 09:56:44;;;;;;;8.38;3.85;;;23.40;50.30;;;;;;5093092;28;20107;-81
2021/09/11 09:59:11;;;;;;;5.18;3.22;;;23.20;49.70;;;;;;5095611;28;20219;-80
2021/09/11 10:01:38;;;;;;;6.15;3.55;;;23.30;50.60;;;;;;5092090;28;20461;-80
2021/09/11 10:04:22;;;;;;;5.95;3.63;;;23.40;50.30;;;;;;5081668;28;20509;-81
2021/09/11 10:06:55;;;;;;;4.95;3.78;;;23.40;49.60;;;;;;5089656;28;20032;-80
2021/09/11 10:09:23;;;;;;;14.57;4.03;;;23.30;49.40;;;;;;5094430;28;20118;-80
2021/09/11 10:11:50;;;;;;;7.00;4.05;;;23.50;50.90;;;;;;5089708;28;20051;-79
2021/09/11 10:14:18;;;;;;;5.47;3.45;;;23.40;49.40;;;;;;5089057;28;20112;-79
2021/09/11 10:16:45;;;;;;;7.57;3.50;;;23.50;50.10;;;;;;5071823;28;20025;-79
2021/09/11 10:19:23;;;;;;;8.55;3.78;;;23.60;48.60;;;;;;5085753;28;20424;-78
2021/09/11 10:22:06;;;;;;;4.38;3.92;;;23.60;49.10;;;;;;5092405;28;20024;-78
2021/09/11 10:24:34;;;;;;;6.38;4.40;;;23.70;48.50;;;;;;5088637;28;20032;-79
2021/09/11 10:27:09;;;;;;;17.92;7.72;;;23.60;47.60;;;;;;5099291;28;20016;-79
2021/09/11 10:29:49;;;;;;;10.38;5.43;;;23.60;48.00;;;;;;5090669;28;20062;-79
2021/09/11 10:32:20;;;;;;;9.75;6.03;;;23.60;48.40;;;;;;5091346;28;20028;-79
2021/09/11 10:34:53;;;;;;;7.67;4.73;;;23.70;48.90;;;;;;5089577;28;20040;-79
2021/09/11 10:37:50;;;;;;;14.68;5.13;;;23.60;47.90;;;;;;5088478;28;20361;-79
2021/09/11 10:40:33;;;;;;;7.65;4.90;;;23.70;48.00;;;;;;5087868;28;20126;-78
2021/09/11 10:43:04;;;;;;;9.00;4.88;;;23.70;48.50;;;;;;5088253;28;20051;-78
2021/09/11 10:46:02;;;;;;;6.38;3.97;;;23.70;48.10;;;;;;5087533;28;20036;-79
2021/09/11 10:48:45;;;;;;;7.60;4.28;;;23.90;49.50;;;;;;5086120;28;20039;-79
2021/09/11 10:51:30;;;;;;;5.82;4.45;;;24.00;49.70;;;;;;5091225;28;20046;-79
2021/09/11 10:54:07;;;;;;;12.63;4.47;;;24.10;49.50;;;;;;5084869;28;20016;-80
2021/09/11 10:56:50;;;;;;;8.00;4.53;;;24.30;50.30;;;;;;5085916;28;20085;-80
2021/09/11 10:59:18;;;;;;;16.65;6.55;;;24.40;49.90;;;;;;5084922;28;20036;-79
2021/09/11 11:01:56;;;;;;;17.20;7.40;;;24.40;49.00;;;;;;5088640;28;20048;-80
2021/09/11 11:04:28;;;;;;;17.48;7.82;;;24.30;47.30;;;;;;5088565;28;20134;-79
2021/09/11 11:06:55;;;;;;;10.17;7.40;;;24.30;48.40;;;;;;5090912;28;20107;-79
2021/09/11 11:09:22;;;;;;;13.45;5.45;;;24.40;49.30;;;;;;5090241;28;20040;-79
2021/09/11 11:11:49;;;;;;;8.50;4.45;;;24.30;48.50;;;;;;5091089;28;20012;-79
2021/09/11 11:14:15;;;;;;;7.35;5.00;;;24.20;48.00;;;;;;5085027;28;20127;-79
2021/09/11 11:16:53;;;;;;;11.82;5.47;;;24.20;49.20;;;;;;5090286;28;20112;-79
2021/09/11 11:19:24;;;;;;;7.65;5.82;;;24.20;49.10;;;;;;5089557;28;20032;-79
2021/09/11 11:21:53;;;;;;;10.23;5.35;;;24.30;50.20;;;;;;5090881;28;20103;-79
2021/09/11 11:24:19;;;;;;;12.63;6.55;;;24.30;49.20;;;;;;5087773;28;20080;-80
2021/09/11 11:26:46;;;;;;;8.50;5.53;;;24.20;48.40;;;;;;5090914;28;20063;-79
2021/09/11 11:29:15;;;;;;;11.57;5.13;;;24.30;50.20;;;;;;5083813;28;20082;-79
2021/09/11 11:31:44;;;;;;;5.68;5.07;;;24.50;51.50;;;;;;5090306;28;20065;-79
2021/09/11 11:34:14;;;;;;;11.13;6.60;;;24.60;50.60;;;;;;5096028;28;20052;-78
2021/09/11 11:36:48;;;;;;;9.10;5.30;;;24.70;51.40;;;;;;5091201;28;20129;-79
2021/09/11 11:39:33;;;;;;;14.55;5.57;;;24.70;49.60;;;;;;5087206;28;20097;-79
2021/09/11 11:42:07;;;;;;;7.45;5.38;;;24.70;48.90;;;;;;5073514;28;20020;-78
2021/09/11 11:44:38;;;;;;;8.13;5.93;;;24.70;49.80;;;;;;5085057;28;20388;-79
2021/09/11 11:47:19;;;;;;;9.02;5.57;;;24.80;49.40;;;;;;5077506;28;20028;-78
2021/09/11 11:49:45;;;;;;;7.75;4.90;;;24.70;48.60;;;;;;5081094;28;20097;-79
2021/09/11 11:52:13;;;;;;;8.88;4.65;;;24.80;49.60;;;;;;5094937;28;20428;-80
2021/09/11 11:54:44;;;;;;;13.05;5.55;;;24.80;48.60;;;;;;5076919;28;20403;-79
2021/09/11 11:57:15;;;;;;;11.60;6.20;;;24.90;48.70;;;;;;5093444;28;20043;-79
2021/09/11 11:59:42;;;;;;;10.23;4.85;;;24.90;47.90;;;;;;5080902;28;20478;-80
2021/09/11 12:02:26;;;;;;;13.45;5.82;;;25.00;48.60;;;;;;5080941;28;20041;-80
2021/09/11 12:04:53;;;;;;;11.85;5.68;;;24.90;47.20;;;;;;5080460;28;20478;-80
2021/09/11 12:07:30;;;;;;;13.43;6.15;;;25.00;49.70;;;;;;5080574;28;20021;-80
2021/09/11 12:10:00;;;;;;;14.38;6.93;;;25.00;48.30;;;;;;5080878;28;20032;-80
2021/09/11 12:12:43;;;;;;;13.57;5.63;;;25.00;47.40;;;;;;5080793;28;20486;-81
2021/09/11 12:15:11;;;;;;;11.18;5.32;;;25.10;47.50;;;;;;5079580;28;20048;-81
2021/09/11 12:17:37;;;;;;;6.88;4.50;;;25.20;47.90;;;;;;5095759;28;20105;-81
2021/09/11 12:20:16;;;;;;;12.15;5.13;;;25.30;47.40;;;;;;5095718;28;20469;-81
2021/09/11 12:22:41;;;;;;;9.80;5.03;;;25.30;47.50;;;;;;5080663;28;20556;-81
2021/09/11 12:25:08;;;;;;;9.32;4.65;;;25.30;47.50;;;;;;5080101;28;20123;-81
2021/09/11 12:27:33;;;;;;;9.52;5.03;;;25.40;47.90;;;;;;5082288;28;20028;-81
2021/09/11 12:30:07;;;;;;;10.25;4.22;;;25.40;47.30;;;;;;5081775;28;20024;-81
2021/09/11 12:32:33;;;;;;;4.60;3.40;;;25.50;48.00;;;;;;5083719;28;20031;-81
2021/09/11 12:35:09;;;;;;;8.65;3.80;;;25.50;45.20;;;;;;5081563;28;20040;-81
2021/09/11 12:37:54;;;;;;;9.23;3.67;;;25.50;45.30;;;;;;5083973;28;20020;-81
2021/09/11 12:40:21;;;;;;;7.05;3.50;;;25.60;46.20;;;;;;5079568;28;20034;-81
2021/09/11 12:42:49;;;;;;;6.95;4.18;;;25.70;45.80;;;;;;5083174;28;20108;-81
2021/09/11 12:45:15;;;;;;;6.35;4.00;;;25.60;45.10;;;;;;5079127;28;20028;-81